sensor_id;sensor_type;location;lat;lon;timestamp;temperature;humidity
7234;DHT22;3658;47.992;10.158;2022-11-02T00:00:12;21.70;56.20
7234;DHT22;3658;47.992;10.158;2022-11-02T00:02:41;21.70;56.20
7234;DHT22;3658;47.992;10.158;2022-11-02T00:05:10;21.70;56.20
7234;DHT22;3658;47.992;10.158;2022-11-02T00:07:38;21.70;56.20
7234;DHT22;3658;47.992;10.158;2022-11-02T00:10:06;21.70;56.20
7234;DHT22;3658;47.992;10.158;2022-11-02T00:12:33;21.70;56.20
7234;DHT22;3658;47.992;10.158;2022-11-02T00:15:00;21.70;56.20
7234;DHT22;3658;47.992;10.158;2022-11-02T00:17:27;21.70;56.10
7234;DHT22;3658;47.992;10.158;2022-11-02T00:19:56;21.70;56.10
7234;DHT22;3658;47.992;10.158;2022-11-02T00:22:24;21.70;56.10
7234;DHT22;3658;47.992;10.158;2022-11-02T00:24:52;21.70;56.10
7234;DHT22;3658;47.992;10.158;2022-11-02T00:27:19;21.70;56.10
7234;DHT22;3658;47.992;10.158;2022-11-02T00:29:46;21.70;56.10
7234;DHT22;3658;47.992;10.158;2022-11-02T00:32:13;21.60;56.00
7234;DHT22;3658;47.992;10.158;2022-11-02T00:34:39;21.60;56.00
7234;DHT22;3658;47.992;10.158;2022-11-02T00:37:08;21.60;56.60
7234;DHT22;3658;47.992;10.158;2022-11-02T00:39:35;21.60;56.00
7234;DHT22;3658;47.992;10.158;2022-11-02T00:42:02;21.60;56.00
7234;DHT22;3658;47.992;10.158;2022-11-02T00:44:28;21.60;56.00
7234;DHT22;3658;47.992;10.158;2022-11-02T00:46:55;21.60;56.00
7234;DHT22;3658;47.992;10.158;2022-11-02T00:49:22;21.60;55.90
7234;DHT22;3658;47.992;10.158;2022-11-02T00:51:49;21.60;56.00
7234;DHT22;3658;47.992;10.158;2022-11-02T00:54:17;21.60;56.00
7234;DHT22;3658;47.992;10.158;2022-11-02T00:56:44;21.60;56.00
7234;DHT22;3658;47.992;10.158;2022-11-02T00:59:11;21.60;55.90
7234;DHT22;3658;47.992;10.158;2022-11-02T01:01:38;21.60;55.90
7234;DHT22;3658;47.992;10.158;2022-11-02T01:04:05;21.60;55.90
7234;DHT22;3658;47.992;10.158;2022-11-02T01:06:32;21.60;55.90
7234;DHT22;3658;47.992;10.158;2022-11-02T01:08:59;21.60;56.00
7234;DHT22;3658;47.992;10.158;2022-11-02T01:11:28;21.60;56.00
7234;DHT22;3658;47.992;10.158;2022-11-02T01:13:54;21.60;56.00
7234;DHT22;3658;47.992;10.158;2022-11-02T01:16:21;21.60;55.90
7234;DHT22;3658;47.992;10.158;2022-11-02T01:18:50;21.60;56.00
7234;DHT22;3658;47.992;10.158;2022-11-02T01:21:18;21.60;55.90
7234;DHT22;3658;47.992;10.158;2022-11-02T01:23:45;21.60;55.90
7234;DHT22;3658;47.992;10.158;2022-11-02T01:26:12;21.60;55.90
7234;DHT22;3658;47.992;10.158;2022-11-02T01:28:40;21.60;55.90
7234;DHT22;3658;47.992;10.158;2022-11-02T01:31:08;21.60;56.00
7234;DHT22;3658;47.992;10.158;2022-11-02T01:33:36;21.60;55.90
7234;DHT22;3658;47.992;10.158;2022-11-02T01:36:04;21.50;55.90
7234;DHT22;3658;47.992;10.158;2022-11-02T01:38:32;21.50;55.90
7234;DHT22;3658;47.992;10.158;2022-11-02T01:40:59;21.50;55.90
7234;DHT22;3658;47.992;10.158;2022-11-02T01:43:27;21.50;55.90
7234;DHT22;3658;47.992;10.158;2022-11-02T01:45:59;21.50;55.90
7234;DHT22;3658;47.992;10.158;2022-11-02T01:48:31;21.50;55.80
7234;DHT22;3658;47.992;10.158;2022-11-02T01:51:02;21.50;55.90
7234;DHT22;3658;47.992;10.158;2022-11-02T01:53:33;21.50;55.80
7234;DHT22;3658;47.992;10.158;2022-11-02T01:56:01;21.50;55.90
7234;DHT22;3658;47.992;10.158;2022-11-02T01:58:28;21.50;55.80
7234;DHT22;3658;47.992;10.158;2022-11-02T02:00:57;21.50;55.80
7234;DHT22;3658;47.992;10.158;2022-11-02T02:03:24;21.50;55.80
7234;DHT22;3658;47.992;10.158;2022-11-02T02:05:55;21.50;55.80
7234;DHT22;3658;47.992;10.158;2022-11-02T02:08:24;21.50;55.80
7234;DHT22;3658;47.992;10.158;2022-11-02T02:10:55;21.50;55.80
7234;DHT22;3658;47.992;10.158;2022-11-02T02:13:22;21.50;56.40
7234;DHT22;3658;47.992;10.158;2022-11-02T02:15:54;21.50;55.80
7234;DHT22;3658;47.992;10.158;2022-11-02T02:18:30;21.50;55.80
7234;DHT22;3658;47.992;10.158;2022-11-02T02:21:09;21.50;55.80
7234;DHT22;3658;47.992;10.158;2022-11-02T02:24:14;21.50;55.80
7234;DHT22;3658;47.992;10.158;2022-11-02T02:27:11;21.50;55.80
7234;DHT22;3658;47.992;10.158;2022-11-02T02:30:00;21.50;55.80
7234;DHT22;3658;47.992;10.158;2022-11-02T02:32:35;21.50;55.80
7234;DHT22;3658;47.992;10.158;2022-11-02T02:35:14;21.50;55.80
7234;DHT22;3658;47.992;10.158;2022-11-02T02:37:50;21.50;55.80
7234;DHT22;3658;47.992;10.158;2022-11-02T02:40:21;21.50;55.80
7234;DHT22;3658;47.992;10.158;2022-11-02T02:42:53;21.40;55.70
7234;DHT22;3658;47.992;10.158;2022-11-02T02:45:26;21.40;55.70
7234;DHT22;3658;47.992;10.158;2022-11-02T02:48:00;21.40;55.70
7234;DHT22;3658;47.992;10.158;2022-11-02T02:50:33;21.50;55.80
7234;DHT22;3658;47.992;10.158;2022-11-02T02:53:02;21.40;55.70
7234;DHT22;3658;47.992;10.158;2022-11-02T02:55:35;21.40;55.70
7234;DHT22;3658;47.992;10.158;2022-11-02T02:58:06;21.40;55.70
7234;DHT22;3658;47.992;10.158;2022-11-02T03:00:38;21.40;55.70
7234;DHT22;3658;47.992;10.158;2022-11-02T03:03:16;21.40;55.70
7234;DHT22;3658;47.992;10.158;2022-11-02T03:05:52;21.40;55.70
7234;DHT22;3658;47.992;10.158;2022-11-02T03:08:20;21.40;55.70
7234;DHT22;3658;47.992;10.158;2022-11-02T03:10:50;21.40;55.70
7234;DHT22;3658;47.992;10.158;2022-11-02T03:13:33;21.40;55.70
7234;DHT22;3658;47.992;10.158;2022-11-02T03:16:08;21.40;55.70
7234;DHT22;3658;47.992;10.158;2022-11-02T03:18:46;21.40;55.70
7234;DHT22;3658;47.992;10.158;2022-11-02T03:21:21;21.40;55.70
7234;DHT22;3658;47.992;10.158;2022-11-02T03:23:53;21.40;55.70
7234;DHT22;3658;47.992;10.158;2022-11-02T03:26:24;21.40;55.70
7234;DHT22;3658;47.992;10.158;2022-11-02T03:28:59;21.40;55.70
7234;DHT22;3658;47.992;10.158;2022-11-02T03:31:34;21.40;55.70
7234;DHT22;3658;47.992;10.158;2022-11-02T03:34:12;21.40;55.70
7234;DHT22;3658;47.992;10.158;2022-11-02T03:36:45;21.40;55.70
7234;DHT22;3658;47.992;10.158;2022-11-02T03:39:16;21.40;55.70
7234;DHT22;3658;47.992;10.158;2022-11-02T03:41:45;21.40;55.70
7234;DHT22;3658;47.992;10.158;2022-11-02T03:44:15;21.40;55.70
7234;DHT22;3658;47.992;10.158;2022-11-02T03:46:45;21.40;55.70
7234;DHT22;3658;47.992;10.158;2022-11-02T03:49:16;21.40;55.70
7234;DHT22;3658;47.992;10.158;2022-11-02T03:51:45;21.40;55.70
7234;DHT22;3658;47.992;10.158;2022-11-02T03:54:18;21.40;55.70
7234;DHT22;3658;47.992;10.158;2022-11-02T03:56:50;21.40;55.70
7234;DHT22;3658;47.992;10.158;2022-11-02T03:59:18;21.40;56.30
7234;DHT22;3658;47.992;10.158;2022-11-02T04:01:49;21.40;55.70
7234;DHT22;3658;47.992;10.158;2022-11-02T04:04:17;21.40;55.70
7234;DHT22;3658;47.992;10.158;2022-11-02T04:06:44;21.40;55.70
7234;DHT22;3658;47.992;10.158;2022-11-02T04:09:12;21.40;55.70
7234;DHT22;3658;47.992;10.158;2022-11-02T04:11:39;21.40;55.70
7234;DHT22;3658;47.992;10.158;2022-11-02T04:14:24;21.40;55.70
7234;DHT22;3658;47.992;10.158;2022-11-02T04:17:09;21.40;55.70
7234;DHT22;3658;47.992;10.158;2022-11-02T04:19:55;21.40;55.70
7234;DHT22;3658;47.992;10.158;2022-11-02T04:22:22;21.40;55.70
7234;DHT22;3658;47.992;10.158;2022-11-02T04:25:11;21.40;55.70
7234;DHT22;3658;47.992;10.158;2022-11-02T04:27:44;21.40;55.70
7234;DHT22;3658;47.992;10.158;2022-11-02T04:30:13;21.40;55.70
7234;DHT22;3658;47.992;10.158;2022-11-02T04:32:43;21.30;55.60
7234;DHT22;3658;47.992;10.158;2022-11-02T04:35:29;21.30;55.70
7234;DHT22;3658;47.992;10.158;2022-11-02T04:37:56;21.30;55.60
7234;DHT22;3658;47.992;10.158;2022-11-02T04:40:41;21.30;55.60
7234;DHT22;3658;47.992;10.158;2022-11-02T04:43:08;21.30;55.60
7234;DHT22;3658;47.992;10.158;2022-11-02T04:45:35;21.30;55.60
7234;DHT22;3658;47.992;10.158;2022-11-02T04:48:05;21.30;55.60
7234;DHT22;3658;47.992;10.158;2022-11-02T04:50:32;21.30;55.60
7234;DHT22;3658;47.992;10.158;2022-11-02T04:53:00;21.30;55.60
7234;DHT22;3658;47.992;10.158;2022-11-02T04:55:28;21.30;55.60
7234;DHT22;3658;47.992;10.158;2022-11-02T04:57:55;21.30;55.60
7234;DHT22;3658;47.992;10.158;2022-11-02T05:00:23;21.30;55.60
7234;DHT22;3658;47.992;10.158;2022-11-02T05:02:50;21.30;55.60
7234;DHT22;3658;47.992;10.158;2022-11-02T05:05:19;21.30;55.70
7234;DHT22;3658;47.992;10.158;2022-11-02T05:11:08;21.30;55.60
7234;DHT22;3658;47.992;10.158;2022-11-02T05:16:57;21.30;55.60
7234;DHT22;3658;47.992;10.158;2022-11-02T05:19:24;21.30;55.60
7234;DHT22;3658;47.992;10.158;2022-11-02T05:21:53;21.30;55.60
7234;DHT22;3658;47.992;10.158;2022-11-02T05:24:20;21.30;56.30
7234;DHT22;3658;47.992;10.158;2022-11-02T05:26:47;21.30;55.60
7234;DHT22;3658;47.992;10.158;2022-11-02T05:29:14;21.30;56.30
7234;DHT22;3658;47.992;10.158;2022-11-02T05:31:40;21.30;55.70
7234;DHT22;3658;47.992;10.158;2022-11-02T05:34:07;21.30;55.70
7234;DHT22;3658;47.992;10.158;2022-11-02T05:36:34;21.30;55.70
7234;DHT22;3658;47.992;10.158;2022-11-02T05:39:03;21.30;55.70
7234;DHT22;3658;47.992;10.158;2022-11-02T05:41:29;21.30;56.20
7234;DHT22;3658;47.992;10.158;2022-11-02T05:43:56;21.30;55.70
7234;DHT22;3658;47.992;10.158;2022-11-02T05:46:23;21.30;55.70
7234;DHT22;3658;47.992;10.158;2022-11-02T05:48:50;21.30;55.70
7234;DHT22;3658;47.992;10.158;2022-11-02T05:51:17;21.30;55.70
7234;DHT22;3658;47.992;10.158;2022-11-02T05:53:44;21.30;55.60
7234;DHT22;3658;47.992;10.158;2022-11-02T05:56:12;21.30;55.60
7234;DHT22;3658;47.992;10.158;2022-11-02T05:58:39;21.30;55.60
7234;DHT22;3658;47.992;10.158;2022-11-02T06:01:07;21.30;55.70
7234;DHT22;3658;47.992;10.158;2022-11-02T06:03:34;21.30;55.70
7234;DHT22;3658;47.992;10.158;2022-11-02T06:06:03;21.30;55.70
7234;DHT22;3658;47.992;10.158;2022-11-02T06:08:31;21.20;55.60
7234;DHT22;3658;47.992;10.158;2022-11-02T06:11:03;21.30;55.70
7234;DHT22;3658;47.992;10.158;2022-11-02T06:13:31;21.30;55.70
7234;DHT22;3658;47.992;10.158;2022-11-02T06:15:59;21.20;55.60
7234;DHT22;3658;47.992;10.158;2022-11-02T06:18:26;21.20;55.60
7234;DHT22;3658;47.992;10.158;2022-11-02T06:20:55;21.20;55.60
7234;DHT22;3658;47.992;10.158;2022-11-02T06:23:22;21.20;55.60
7234;DHT22;3658;47.992;10.158;2022-11-02T06:25:50;21.20;55.50
7234;DHT22;3658;47.992;10.158;2022-11-02T06:28:17;21.20;55.50
7234;DHT22;3658;47.992;10.158;2022-11-02T06:30:46;21.20;55.60
7234;DHT22;3658;47.992;10.158;2022-11-02T06:33:14;21.20;55.60
7234;DHT22;3658;47.992;10.158;2022-11-02T06:35:43;21.20;55.60
7234;DHT22;3658;47.992;10.158;2022-11-02T06:38:11;21.20;55.60
7234;DHT22;3658;47.992;10.158;2022-11-02T06:40:38;21.20;55.50
7234;DHT22;3658;47.992;10.158;2022-11-02T06:43:05;21.20;55.60
7234;DHT22;3658;47.992;10.158;2022-11-02T06:45:32;21.20;55.60
7234;DHT22;3658;47.992;10.158;2022-11-02T06:48:00;21.20;55.60
7234;DHT22;3658;47.992;10.158;2022-11-02T06:50:27;21.20;55.60
7234;DHT22;3658;47.992;10.158;2022-11-02T06:52:54;21.20;55.60
7234;DHT22;3658;47.992;10.158;2022-11-02T06:55:21;21.20;55.70
7234;DHT22;3658;47.992;10.158;2022-11-02T06:57:49;21.30;55.90
7234;DHT22;3658;47.992;10.158;2022-11-02T07:00:16;21.30;56.10
7234;DHT22;3658;47.992;10.158;2022-11-02T07:02:43;21.30;56.20
7234;DHT22;3658;47.992;10.158;2022-11-02T07:05:12;21.30;56.30
7234;DHT22;3658;47.992;10.158;2022-11-02T07:07:39;21.30;56.30
7234;DHT22;3658;47.992;10.158;2022-11-02T07:10:07;21.30;56.40
7234;DHT22;3658;47.992;10.158;2022-11-02T07:12:35;21.30;56.40
7234;DHT22;3658;47.992;10.158;2022-11-02T07:15:02;21.30;56.50
7234;DHT22;3658;47.992;10.158;2022-11-02T07:17:29;21.30;56.80
7234;DHT22;3658;47.992;10.158;2022-11-02T07:19:56;21.30;57.00
7234;DHT22;3658;47.992;10.158;2022-11-02T07:22:24;21.30;57.20
7234;DHT22;3658;47.992;10.158;2022-11-02T07:24:51;21.30;57.20
7234;DHT22;3658;47.992;10.158;2022-11-02T07:27:18;21.30;57.10
7234;DHT22;3658;47.992;10.158;2022-11-02T07:29:45;21.30;57.00
7234;DHT22;3658;47.992;10.158;2022-11-02T07:32:12;21.30;56.90
7234;DHT22;3658;47.992;10.158;2022-11-02T07:34:39;21.30;56.80
7234;DHT22;3658;47.992;10.158;2022-11-02T07:37:06;21.30;56.80
7234;DHT22;3658;47.992;10.158;2022-11-02T07:39:35;21.30;56.70
7234;DHT22;3658;47.992;10.158;2022-11-02T07:42:02;21.30;56.70
7234;DHT22;3658;47.992;10.158;2022-11-02T07:44:29;21.30;57.30
7234;DHT22;3658;47.992;10.158;2022-11-02T07:46:56;21.20;56.60
7234;DHT22;3658;47.992;10.158;2022-11-02T07:49:23;21.20;56.60
7234;DHT22;3658;47.992;10.158;2022-11-02T07:51:50;21.20;56.60
7234;DHT22;3658;47.992;10.158;2022-11-02T07:54:16;21.20;56.60
7234;DHT22;3658;47.992;10.158;2022-11-02T07:56:45;21.20;56.60
7234;DHT22;3658;47.992;10.158;2022-11-02T08:02:33;21.20;56.60
7234;DHT22;3658;47.992;10.158;2022-11-02T08:05:00;21.20;56.60
7234;DHT22;3658;47.992;10.158;2022-11-02T08:07:27;21.20;56.60
7234;DHT22;3658;47.992;10.158;2022-11-02T08:09:54;21.20;56.60
7234;DHT22;3658;47.992;10.158;2022-11-02T08:12:23;21.20;56.60
7234;DHT22;3658;47.992;10.158;2022-11-02T08:14:50;21.20;56.60
7234;DHT22;3658;47.992;10.158;2022-11-02T08:17:17;21.20;56.60
7234;DHT22;3658;47.992;10.158;2022-11-02T08:19:44;21.20;56.60
7234;DHT22;3658;47.992;10.158;2022-11-02T08:22:10;21.20;57.20
7234;DHT22;3658;47.992;10.158;2022-11-02T08:24:37;21.20;56.50
7234;DHT22;3658;47.992;10.158;2022-11-02T08:27:04;21.20;56.60
7234;DHT22;3658;47.992;10.158;2022-11-02T08:29:32;21.20;56.50
7234;DHT22;3658;47.992;10.158;2022-11-02T08:32:01;21.20;56.60
7234;DHT22;3658;47.992;10.158;2022-11-02T08:34:28;21.20;56.60
7234;DHT22;3658;47.992;10.158;2022-11-02T08:36:56;21.20;56.60
7234;DHT22;3658;47.992;10.158;2022-11-02T08:39:23;21.20;56.50
7234;DHT22;3658;47.992;10.158;2022-11-02T08:41:50;21.20;56.50
7234;DHT22;3658;47.992;10.158;2022-11-02T08:44:17;21.20;56.50
7234;DHT22;3658;47.992;10.158;2022-11-02T08:46:45;21.20;56.60
7234;DHT22;3658;47.992;10.158;2022-11-02T08:52:34;21.20;56.60
7234;DHT22;3658;47.992;10.158;2022-11-02T08:55:01;21.20;56.60
7234;DHT22;3658;47.992;10.158;2022-11-02T08:57:28;21.20;56.60
7234;DHT22;3658;47.992;10.158;2022-11-02T08:59:55;21.20;56.70
7234;DHT22;3658;47.992;10.158;2022-11-02T09:02:23;21.20;56.60
7234;DHT22;3658;47.992;10.158;2022-11-02T09:04:50;21.20;56.70
7234;DHT22;3658;47.992;10.158;2022-11-02T09:07:17;21.20;56.60
7234;DHT22;3658;47.992;10.158;2022-11-02T09:09:44;21.20;56.60
7234;DHT22;3658;47.992;10.158;2022-11-02T09:12:11;21.20;57.20
7234;DHT22;3658;47.992;10.158;2022-11-02T09:14:38;21.20;56.60
7234;DHT22;3658;47.992;10.158;2022-11-02T09:17:05;21.20;56.60
7234;DHT22;3658;47.992;10.158;2022-11-02T09:19:33;21.20;56.60
7234;DHT22;3658;47.992;10.158;2022-11-02T09:22:00;21.20;56.60
7234;DHT22;3658;47.992;10.158;2022-11-02T09:24:27;21.20;56.60
7234;DHT22;3658;47.992;10.158;2022-11-02T09:26:54;21.20;56.60
7234;DHT22;3658;47.992;10.158;2022-11-02T09:29:21;21.20;56.60
7234;DHT22;3658;47.992;10.158;2022-11-02T09:31:47;21.20;56.60
7234;DHT22;3658;47.992;10.158;2022-11-02T09:34:14;21.20;56.60
7234;DHT22;3658;47.992;10.158;2022-11-02T09:36:43;21.20;56.60
7234;DHT22;3658;47.992;10.158;2022-11-02T09:42:37;21.20;56.60
7234;DHT22;3658;47.992;10.158;2022-11-02T09:45:12;21.20;56.70
7234;DHT22;3658;47.992;10.158;2022-11-02T09:47:42;21.20;56.60
7234;DHT22;3658;47.992;10.158;2022-11-02T09:50:14;21.20;56.70
7234;DHT22;3658;47.992;10.158;2022-11-02T09:52:46;21.20;56.60
7234;DHT22;3658;47.992;10.158;2022-11-02T09:55:18;21.20;56.70
7234;DHT22;3658;47.992;10.158;2022-11-02T09:57:52;21.20;56.70
7234;DHT22;3658;47.992;10.158;2022-11-02T10:00:20;21.20;56.70
7234;DHT22;3658;47.992;10.158;2022-11-02T10:02:54;21.20;56.70
7234;DHT22;3658;47.992;10.158;2022-11-02T10:05:31;21.20;56.70
7234;DHT22;3658;47.992;10.158;2022-11-02T10:08:22;21.20;56.60
7234;DHT22;3658;47.992;10.158;2022-11-02T10:10:59;21.20;56.60
7234;DHT22;3658;47.992;10.158;2022-11-02T10:13:35;21.20;56.60
7234;DHT22;3658;47.992;10.158;2022-11-02T10:16:06;21.20;56.60
7234;DHT22;3658;47.992;10.158;2022-11-02T10:18:35;21.20;56.60
7234;DHT22;3658;47.992;10.158;2022-11-02T10:21:06;21.20;56.60
7234;DHT22;3658;47.992;10.158;2022-11-02T10:23:39;21.10;56.50
7234;DHT22;3658;47.992;10.158;2022-11-02T10:26:13;21.20;56.60
7234;DHT22;3658;47.992;10.158;2022-11-02T10:28:46;21.10;56.50
7234;DHT22;3658;47.992;10.158;2022-11-02T10:31:21;21.20;56.60
7234;DHT22;3658;47.992;10.158;2022-11-02T10:33:49;21.10;56.50
7234;DHT22;3658;47.992;10.158;2022-11-02T10:36:39;21.10;56.50
7234;DHT22;3658;47.992;10.158;2022-11-02T10:39:20;21.10;56.50
7234;DHT22;3658;47.992;10.158;2022-11-02T10:42:17;21.10;56.50
7234;DHT22;3658;47.992;10.158;2022-11-02T10:44:59;21.10;56.50
7234;DHT22;3658;47.992;10.158;2022-11-02T10:47:31;21.10;56.50
7234;DHT22;3658;47.992;10.158;2022-11-02T10:50:33;21.10;56.60
7234;DHT22;3658;47.992;10.158;2022-11-02T10:53:02;21.10;56.50
7234;DHT22;3658;47.992;10.158;2022-11-02T10:55:44;21.10;56.50
7234;DHT22;3658;47.992;10.158;2022-11-02T10:58:18;21.10;56.50
7234;DHT22;3658;47.992;10.158;2022-11-02T11:00:46;21.10;56.60
7234;DHT22;3658;47.992;10.158;2022-11-02T11:03:15;21.10;56.50
7234;DHT22;3658;47.992;10.158;2022-11-02T11:05:56;21.10;56.50
7234;DHT22;3658;47.992;10.158;2022-11-02T11:08:29;21.10;56.50
7234;DHT22;3658;47.992;10.158;2022-11-02T11:11:12;21.10;56.50
7234;DHT22;3658;47.992;10.158;2022-11-02T11:13:40;21.10;56.50
7234;DHT22;3658;47.992;10.158;2022-11-02T11:16:09;21.10;56.50
7234;DHT22;3658;47.992;10.158;2022-11-02T11:18:36;21.10;56.50
7234;DHT22;3658;47.992;10.158;2022-11-02T11:21:05;21.10;56.50
7234;DHT22;3658;47.992;10.158;2022-11-02T11:23:35;21.10;56.50
7234;DHT22;3658;47.992;10.158;2022-11-02T11:26:11;21.10;56.50
7234;DHT22;3658;47.992;10.158;2022-11-02T11:28:54;21.10;56.50
7234;DHT22;3658;47.992;10.158;2022-11-02T11:31:25;21.10;56.40
7234;DHT22;3658;47.992;10.158;2022-11-02T11:33:53;21.10;56.50
7234;DHT22;3658;47.992;10.158;2022-11-02T11:36:26;21.10;56.50
7234;DHT22;3658;47.992;10.158;2022-11-02T11:38:57;21.10;56.50
7234;DHT22;3658;47.992;10.158;2022-11-02T11:41:26;21.10;56.50
7234;DHT22;3658;47.992;10.158;2022-11-02T11:43:54;21.10;56.50
7234;DHT22;3658;47.992;10.158;2022-11-02T11:46:21;21.10;56.50
7234;DHT22;3658;47.992;10.158;2022-11-02T11:48:50;21.10;56.50
7234;DHT22;3658;47.992;10.158;2022-11-02T11:51:27;21.10;56.50
7234;DHT22;3658;47.992;10.158;2022-11-02T11:54:18;21.10;56.50
7234;DHT22;3658;47.992;10.158;2022-11-02T11:56:47;21.10;56.50
7234;DHT22;3658;47.992;10.158;2022-11-02T11:59:25;21.10;56.50
7234;DHT22;3658;47.992;10.158;2022-11-02T12:01:55;21.10;56.50
7234;DHT22;3658;47.992;10.158;2022-11-02T12:04:27;21.10;56.50
7234;DHT22;3658;47.992;10.158;2022-11-02T12:07:05;21.10;56.50
7234;DHT22;3658;47.992;10.158;2022-11-02T12:09:40;21.10;56.50
7234;DHT22;3658;47.992;10.158;2022-11-02T12:12:12;21.10;56.50
7234;DHT22;3658;47.992;10.158;2022-11-02T12:14:50;21.10;56.50
7234;DHT22;3658;47.992;10.158;2022-11-02T12:17:31;21.10;56.50
7234;DHT22;3658;47.992;10.158;2022-11-02T12:20:15;21.10;56.50
7234;DHT22;3658;47.992;10.158;2022-11-02T12:22:49;21.10;56.50
7234;DHT22;3658;47.992;10.158;2022-11-02T12:25:34;21.10;56.50
7234;DHT22;3658;47.992;10.158;2022-11-02T12:31:31;21.10;56.50
7234;DHT22;3658;47.992;10.158;2022-11-02T12:37:26;21.10;56.40
7234;DHT22;3658;47.992;10.158;2022-11-02T12:40:06;21.10;57.10
7234;DHT22;3658;47.992;10.158;2022-11-02T12:42:44;21.10;56.50
7234;DHT22;3658;47.992;10.158;2022-11-02T12:45:20;21.10;56.50
7234;DHT22;3658;47.992;10.158;2022-11-02T12:47:56;21.10;56.40
7234;DHT22;3658;47.992;10.158;2022-11-02T12:50:43;21.10;56.50
7234;DHT22;3658;47.992;10.158;2022-11-02T12:53:24;21.10;56.50
7234;DHT22;3658;47.992;10.158;2022-11-02T12:55:56;21.10;56.50
7234;DHT22;3658;47.992;10.158;2022-11-02T12:58:27;21.10;56.40
7234;DHT22;3658;47.992;10.158;2022-11-02T13:00:59;21.10;56.40
7234;DHT22;3658;47.992;10.158;2022-11-02T13:03:33;21.10;56.50
7234;DHT22;3658;47.992;10.158;2022-11-02T13:06:07;21.10;56.40
7234;DHT22;3658;47.992;10.158;2022-11-02T13:08:41;21.10;56.40
7234;DHT22;3658;47.992;10.158;2022-11-02T13:11:14;21.10;56.40
7234;DHT22;3658;47.992;10.158;2022-11-02T13:13:44;21.10;56.40
7234;DHT22;3658;47.992;10.158;2022-11-02T13:16:14;21.10;56.40
7234;DHT22;3658;47.992;10.158;2022-11-02T13:18:47;21.00;56.40
7234;DHT22;3658;47.992;10.158;2022-11-02T13:21:17;21.00;56.40
7234;DHT22;3658;47.992;10.158;2022-11-02T13:23:50;21.00;56.30
7234;DHT22;3658;47.992;10.158;2022-11-02T13:26:25;21.00;56.40
7234;DHT22;3658;47.992;10.158;2022-11-02T13:28:55;21.00;56.30
7234;DHT22;3658;47.992;10.158;2022-11-02T13:31:28;21.00;56.30
7234;DHT22;3658;47.992;10.158;2022-11-02T13:34:00;21.00;56.40
7234;DHT22;3658;47.992;10.158;2022-11-02T13:36:28;21.00;56.30
7234;DHT22;3658;47.992;10.158;2022-11-02T13:38:58;21.10;56.40
7234;DHT22;3658;47.992;10.158;2022-11-02T13:41:52;21.00;56.30
7234;DHT22;3658;47.992;10.158;2022-11-02T13:44:39;21.00;56.40
7234;DHT22;3658;47.992;10.158;2022-11-02T13:47:28;21.00;56.30
7234;DHT22;3658;47.992;10.158;2022-11-02T13:50:01;21.00;56.40
7234;DHT22;3658;47.992;10.158;2022-11-02T13:52:36;21.00;56.40
7234;DHT22;3658;47.992;10.158;2022-11-02T13:55:06;21.00;56.40
7234;DHT22;3658;47.992;10.158;2022-11-02T13:57:36;21.00;56.30
7234;DHT22;3658;47.992;10.158;2022-11-02T14:00:09;21.00;56.30
7234;DHT22;3658;47.992;10.158;2022-11-02T14:02:55;21.00;56.30
7234;DHT22;3658;47.992;10.158;2022-11-02T14:05:29;21.00;56.40
7234;DHT22;3658;47.992;10.158;2022-11-02T14:07:59;21.00;56.40
7234;DHT22;3658;47.992;10.158;2022-11-02T14:10:27;21.00;56.40
7234;DHT22;3658;47.992;10.158;2022-11-02T14:12:55;21.00;56.40
7234;DHT22;3658;47.992;10.158;2022-11-02T14:15:52;21.00;56.40
7234;DHT22;3658;47.992;10.158;2022-11-02T14:18:29;21.00;56.30
7234;DHT22;3658;47.992;10.158;2022-11-02T14:27:27;21.00;56.40
7234;DHT22;3658;47.992;10.158;2022-11-02T14:29:55;21.00;56.30
7234;DHT22;3658;47.992;10.158;2022-11-02T14:32:31;21.00;56.40
7234;DHT22;3658;47.992;10.158;2022-11-02T14:35:12;21.00;56.40
7234;DHT22;3658;47.992;10.158;2022-11-02T14:38:00;21.00;56.40
7234;DHT22;3658;47.992;10.158;2022-11-02T14:40:37;21.00;56.30
7234;DHT22;3658;47.992;10.158;2022-11-02T14:46:17;21.00;56.40
7234;DHT22;3658;47.992;10.158;2022-11-02T14:48:50;21.00;56.40
7234;DHT22;3658;47.992;10.158;2022-11-02T14:51:20;21.00;56.40
7234;DHT22;3658;47.992;10.158;2022-11-02T14:53:55;21.00;56.40
7234;DHT22;3658;47.992;10.158;2022-11-02T14:56:24;21.00;56.30
7234;DHT22;3658;47.992;10.158;2022-11-02T14:59:13;21.00;56.30
7234;DHT22;3658;47.992;10.158;2022-11-02T15:01:50;21.00;56.40
7234;DHT22;3658;47.992;10.158;2022-11-02T15:04:19;21.00;56.40
7234;DHT22;3658;47.992;10.158;2022-11-02T15:06:51;21.00;56.40
7234;DHT22;3658;47.992;10.158;2022-11-02T15:12:43;21.00;56.40
7234;DHT22;3658;47.992;10.158;2022-11-02T15:15:32;21.00;56.40
7234;DHT22;3658;47.992;10.158;2022-11-02T15:18:22;21.00;56.40
7234;DHT22;3658;47.992;10.158;2022-11-02T15:21:26;21.00;56.30
7234;DHT22;3658;47.992;10.158;2022-11-02T15:24:06;21.00;56.40
7234;DHT22;3658;47.992;10.158;2022-11-02T15:26:40;21.00;56.40
7234;DHT22;3658;47.992;10.158;2022-11-02T15:29:17;21.00;56.40
7234;DHT22;3658;47.992;10.158;2022-11-02T15:31:52;21.00;56.40
7234;DHT22;3658;47.992;10.158;2022-11-02T15:34:27;20.90;56.20
7234;DHT22;3658;47.992;10.158;2022-11-02T15:36:57;20.90;56.30
7234;DHT22;3658;47.992;10.158;2022-11-02T15:42:53;21.00;56.40
7234;DHT22;3658;47.992;10.158;2022-11-02T15:45:41;20.90;56.30
7234;DHT22;3658;47.992;10.158;2022-11-02T15:48:22;20.90;56.20
7234;DHT22;3658;47.992;10.158;2022-11-02T15:50:59;21.00;56.30
7234;DHT22;3658;47.992;10.158;2022-11-02T15:54:00;20.90;56.30
7234;DHT22;3658;47.992;10.158;2022-11-02T15:56:46;21.00;56.40
7234;DHT22;3658;47.992;10.158;2022-11-02T15:59:46;20.90;56.90
7234;DHT22;3658;47.992;10.158;2022-11-02T16:02:22;20.90;56.20
7234;DHT22;3658;47.992;10.158;2022-11-02T16:04:51;20.90;56.20
7234;DHT22;3658;47.992;10.158;2022-11-02T16:07:19;20.90;56.20
7234;DHT22;3658;47.992;10.158;2022-11-02T16:09:47;20.90;56.20
7234;DHT22;3658;47.992;10.158;2022-11-02T16:12:16;20.90;56.20
7234;DHT22;3658;47.992;10.158;2022-11-02T16:14:44;20.90;56.20
7234;DHT22;3658;47.992;10.158;2022-11-02T16:17:22;20.90;56.20
7234;DHT22;3658;47.992;10.158;2022-11-02T16:19:50;20.90;56.20
7234;DHT22;3658;47.992;10.158;2022-11-02T16:22:22;20.90;56.20
7234;DHT22;3658;47.992;10.158;2022-11-02T16:24:51;20.90;56.20
7234;DHT22;3658;47.992;10.158;2022-11-02T16:27:18;20.90;56.20
7234;DHT22;3658;47.992;10.158;2022-11-02T16:29:45;20.90;56.20
7234;DHT22;3658;47.992;10.158;2022-11-02T16:32:14;20.90;56.20
7234;DHT22;3658;47.992;10.158;2022-11-02T16:34:43;20.90;56.20
7234;DHT22;3658;47.992;10.158;2022-11-02T16:37:12;20.90;56.20
7234;DHT22;3658;47.992;10.158;2022-11-02T16:39:44;20.90;56.20
7234;DHT22;3658;47.992;10.158;2022-11-02T16:42:16;20.90;56.20
7234;DHT22;3658;47.992;10.158;2022-11-02T16:44:54;20.90;56.20
7234;DHT22;3658;47.992;10.158;2022-11-02T16:47:33;20.90;56.20
7234;DHT22;3658;47.992;10.158;2022-11-02T16:50:16;20.90;56.20
7234;DHT22;3658;47.992;10.158;2022-11-02T16:52:52;20.90;56.20